< < Back
Terminal Aerodrome Forecast


Current Version              Previous Versions:   1  2  3  4  5  6  7  8  9  

Terminal Aerodrome Forecast

224
FTUS42 KJAX 181700
TAFJAX
TAF
KJAX 181721Z 1818/1918 09013G20KT 3SM RA BR BKN008 OVC015
     FM181900 12012G19KT 2SM SHRA BR OVC007
     FM190400 18012KT 3SM -SHRA BR OVC009=

Latest METAR

033
SAUS80 KWBC 182300 RRA
MTRJAX
METAR KJAX 182256Z 32007KT 6SM -RA BR SCT006 BKN011 OVC036 18/18 A2992
RMK AO2 SLP134 P0009 T01830183 $


USA.gov is the U.S. government's official web portal to all federal, state and local government web resources and services.